Time;durP1;ratioP1;P1;durP2;ratioP2;P2;SDS_P1;SDS_P2;PMS_P1;PMS_P2;Temp;Humidity;BMP_temperature;BMP_pressure;BME280_temperature;BME280_humidity;BME280_pressure;Samples;Min_cycle;Max_cycle;Signal;HPM_P1;HPM_P2
2022/01/05 00:01:50;;;;;;;0.73;0.60;;;;;;;4.25;86.42;99575.59;5054301;28;20097;-72
2022/01/05 00:04:15;;;;;;;2.55;0.68;;;;;;;4.27;86.28;99578.00;5040571;28;20021;-72
2022/01/05 00:06:40;;;;;;;1.00;0.50;;;;;;;4.25;86.06;99572.94;5051965;28;20033;-74
2022/01/05 00:09:06;;;;;;;1.27;0.60;;;;;;;4.22;85.97;99579.53;5052891;28;20036;-71
2022/01/05 00:11:32;;;;;;;1.58;0.50;;;;;;;4.10;86.27;99564.69;5051334;28;20483;-71
2022/01/05 00:13:58;;;;;;;4.88;0.80;;;;;;;4.07;86.38;99557.22;5053228;28;20032;-73
2022/01/05 00:16:23;;;;;;;3.53;1.27;;;;;;;4.06;86.30;99561.72;5052656;28;20032;-72
2022/01/05 00:18:49;;;;;;;0.95;0.60;;;;;;;4.01;86.58;99558.16;5054006;28;20036;-73
2022/01/05 00:21:14;;;;;;;1.73;0.70;;;;;;;4.00;86.63;99560.00;5053449;28;20391;-71
2022/01/05 00:23:40;;;;;;;2.78;0.70;;;;;;;4.05;86.74;99557.44;5052353;28;20028;-71
2022/01/05 00:26:05;;;;;;;2.88;1.10;;;;;;;4.06;86.26;99550.31;5033674;28;20025;-72
2022/01/05 00:28:31;;;;;;;2.47;0.82;;;;;;;4.01;86.74;99555.50;5053225;28;20491;-72
2022/01/05 00:30:57;;;;;;;1.08;0.90;;;;;;;4.00;86.62;99560.00;5054284;28;20058;-72
2022/01/05 00:33:23;;;;;;;3.85;0.85;;;;;;;3.98;86.81;99559.44;5050695;28;20455;-73
2022/01/05 00:35:48;;;;;;;0.98;0.80;;;;;;;3.99;86.80;99550.44;5052935;28;20079;-73
2022/01/05 00:38:13;;;;;;;1.23;0.90;;;;;;;3.98;86.94;99558.63;5054518;28;20036;-71
2022/01/05 00:40:39;;;;;;;2.67;1.85;;;;;;;4.00;86.81;99564.50;5052643;28;20091;-71
2022/01/05 00:43:04;;;;;;;2.95;1.08;;;;;;;3.99;86.71;99569.00;5034576;28;20024;-72
2022/01/05 00:45:30;;;;;;;4.50;1.23;;;;;;;3.92;86.97;99573.59;5053152;28;20070;-72
2022/01/05 00:47:55;;;;;;;2.47;1.15;;;;;;;3.88;87.02;99581.22;5053339;28;20020;-72
2022/01/05 00:50:21;;;;;;;3.38;1.40;;;;;;;3.76;87.27;99576.94;5054142;28;20392;-73
2022/01/05 00:52:46;;;;;;;1.98;1.23;;;;;;;3.76;87.41;99574.31;5053777;28;20055;-72
2022/01/05 00:55:12;;;;;;;6.10;1.80;;;;;;;3.83;87.63;99575.00;5048152;28;20036;-73
2022/01/05 00:57:37;;;;;;;4.28;1.30;;;;;;;3.83;87.50;99578.47;5051453;28;20120;-72
2022/01/05 01:00:04;;;;;;;3.35;1.45;;;;;;;3.85;87.30;99584.31;5052023;28;20032;-74
2022/01/05 01:02:29;;;;;;;4.65;1.83;;;;;;;3.89;87.22;99589.97;5055235;28;20111;-73
2022/01/05 01:04:55;;;;;;;4.13;1.50;;;;;;;3.91;87.19;99586.03;5048420;28;20542;-72
2022/01/05 01:07:20;;;;;;;3.58;2.00;;;;;;;3.86;87.11;99593.88;5050375;28;20058;-74
2022/01/05 01:09:46;;;;;;;4.15;1.67;;;;;;;3.87;86.85;99598.16;5051421;28;20036;-71
2022/01/05 01:12:12;;;;;;;4.50;1.90;;;;;;;3.81;87.20;99600.94;5050314;28;20484;-72
2022/01/05 01:14:37;;;;;;;4.75;1.90;;;;;;;3.80;87.20;99604.63;5039104;28;20016;-72
2022/01/05 01:17:03;;;;;;;4.63;1.80;;;;;;;3.82;87.12;99591.94;5050984;28;20072;-73
2022/01/05 01:19:29;;;;;;;4.85;2.13;;;;;;;3.72;87.23;99597.81;5051415;28;20469;-72
2022/01/05 01:21:55;;;;;;;6.60;2.63;;;;;;;3.70;87.55;99597.25;5051037;28;20047;-72
2022/01/05 01:24:21;;;;;;;4.97;2.50;;;;;;;3.72;87.47;99594.34;5048104;28;20040;-73
2022/01/05 01:26:47;;;;;;;8.45;2.80;;;;;;;3.73;87.69;99594.13;5047705;28;20031;-71
2022/01/05 01:29:13;;;;;;;7.70;2.58;;;;;;;3.69;87.48;99597.47;5051060;28;20028;-71
2022/01/05 01:31:39;;;;;;;5.57;2.83;;;;;;;3.72;87.63;99592.50;5047244;28;20110;-72
2022/01/05 01:34:04;;;;;;;5.55;2.40;;;;;;;3.78;87.52;99599.56;5048547;28;20033;-72
2022/01/05 01:36:30;;;;;;;6.20;3.15;;;;;;;3.79;87.43;99597.72;5048491;28;20119;-71
2022/01/05 01:38:55;;;;;;;5.95;3.08;;;;;;;3.85;87.35;99591.47;5055296;28;20017;-71
2022/01/05 01:41:21;;;;;;;6.63;2.83;;;;;;;3.83;87.35;99594.34;5050938;28;20025;-74
2022/01/05 01:43:46;;;;;;;6.63;2.70;;;;;;;3.83;86.91;99591.72;5052370;28;20067;-71
2022/01/05 01:46:12;;;;;;;7.90;3.17;;;;;;;3.83;87.25;99591.72;5049615;28;20115;-71
2022/01/05 01:48:38;;;;;;;6.30;3.22;;;;;;;3.82;87.15;99590.09;5031755;28;20020;-72
2022/01/05 01:51:03;;;;;;;8.50;3.20;;;;;;;3.84;87.22;99595.16;5051559;28;20028;-73
2022/01/05 01:53:29;;;;;;;6.57;2.80;;;;;;;3.84;86.81;99595.97;5051531;28;20033;-71
2022/01/05 01:55:57;;;;;;;7.57;2.97;;;;;;;3.79;86.90;99598.50;5044291;28;20025;-71
2022/01/05 01:58:25;;;;;;;8.98;3.60;;;;;;;3.79;87.20;99600.34;5052383;28;20126;-73
2022/01/05 02:00:51;;;;;;;9.27;3.63;;;;;;;3.75;87.12;99596.53;5053013;28;20241;-73
2022/01/05 02:03:17;;;;;;;12.38;4.20;;;;;;;3.72;87.28;99587.22;5050686;28;20142;-71
2022/01/05 02:05:42;;;;;;;9.10;4.15;;;;;;;3.74;87.33;99598.38;5045697;28;20566;-72
2022/01/05 02:08:08;;;;;;;9.73;3.70;;;;;;;3.75;87.28;99592.03;5049660;28;20309;-72
2022/01/05 02:10:33;;;;;;;7.70;3.42;;;;;;;3.76;87.20;99592.84;5055227;28;20028;-71
2022/01/05 02:12:59;;;;;;;8.20;3.45;;;;;;;3.74;87.43;99592.28;5037322;28;20133;-72
2022/01/05 02:15:25;;;;;;;9.27;3.30;;;;;;;3.76;87.38;99593.66;5052937;28;20215;-71
2022/01/05 02:20:28;;;;;;;10.30;3.78;;;;;;;3.72;87.47;99603.09;5053452;28;20462;-72
2022/01/05 02:22:55;;;;;;;7.07;3.47;;;;;;;3.71;87.13;99596.19;5042027;28;20506;-71
2022/01/05 02:25:21;;;;;;;10.20;3.28;;;;;;;3.64;87.34;99593.69;5051658;28;20044;-73
2022/01/05 02:27:48;;;;;;;9.43;4.00;;;;;;;3.66;87.48;99593.44;5052294;28;20032;-73
2022/01/05 02:30:19;;;;;;;7.50;3.65;;;;;;;3.65;87.69;99591.84;5052537;28;20036;-71
2022/01/05 02:32:45;;;;;;;8.95;3.88;;;;;;;3.70;87.66;99588.47;5055946;28;20112;-71
2022/01/05 02:35:11;;;;;;;8.45;3.58;;;;;;;3.70;87.40;99585.84;5032224;28;20464;-71
2022/01/05 02:37:41;;;;;;;11.52;3.72;;;;;;;3.67;87.70;99581.00;5049521;28;20032;-71
2022/01/05 02:40:10;;;;;;;11.38;3.10;;;;;;;3.63;87.33;99588.63;5054216;28;20029;-73
2022/01/05 02:42:35;;;;;;;8.73;3.15;;;;;;;3.61;87.47;99586.19;5054724;28;20032;-71
2022/01/05 02:45:01;;;;;;;11.63;4.18;;;;;;;3.65;87.59;99583.88;5055118;28;20029;-72
2022/01/05 02:47:27;;;;;;;10.35;3.92;;;;;;;3.61;87.72;99580.09;5053122;28;20031;-70
2022/01/05 02:49:57;;;;;;;10.20;3.63;;;;;;;3.61;87.81;99586.19;5052256;28;20035;-72
2022/01/05 02:52:23;;;;;;;10.32;3.78;;;;;;;3.63;87.57;99589.41;5051854;28;20165;-71
2022/01/05 02:54:48;;;;;;;8.23;3.80;;;;;;;3.65;87.54;99586.53;5058590;28;20056;-73
2022/01/05 02:57:14;;;;;;;7.30;3.47;;;;;;;3.64;87.18;99592.88;5050812;28;20027;-71
2022/01/05 02:59:39;;;;;;;10.10;3.67;;;;;;;3.66;87.08;99588.16;5039116;28;20023;-71
2022/01/05 03:02:05;;;;;;;8.77;2.90;;;;;;;3.65;87.09;99602.44;5052131;28;20040;-73
2022/01/05 03:04:31;;;;;;;11.05;3.60;;;;;;;3.64;87.30;99584.94;5037325;28;20025;-71
2022/01/05 03:06:56;;;;;;;10.43;3.40;;;;;;;3.54;87.00;99589.97;5057822;28;20025;-71
2022/01/05 03:09:22;;;;;;;9.88;3.03;;;;;;;3.53;87.01;99593.66;5053450;28;20102;-73
2022/01/05 03:11:47;;;;;;;11.05;3.80;;;;;;;3.53;87.31;99583.88;5057211;28;20098;-72
2022/01/05 03:14:13;;;;;;;6.75;3.15;;;;;;;3.50;87.25;99584.34;5050033;28;20233;-71
2022/01/05 03:16:38;;;;;;;10.82;3.15;;;;;;;3.49;87.20;99576.63;5050112;28;20032;-72
2022/01/05 03:19:04;;;;;;;7.53;3.00;;;;;;;3.45;87.42;99575.50;5055338;28;20032;-72
2022/01/05 03:21:29;;;;;;;8.70;3.05;;;;;;;3.45;87.17;99580.78;5053316;28;20124;-71
2022/01/05 03:23:55;;;;;;;8.27;3.05;;;;;;;3.45;87.18;99584.25;5058911;28;20032;-71
2022/01/05 03:26:20;;;;;;;10.88;3.38;;;;;;;3.50;87.21;99580.88;5058079;28;20079;-71
2022/01/05 03:28:46;;;;;;;5.53;2.33;;;;;;;3.47;87.02;99576.06;5050951;28;20043;-71
2022/01/05 03:31:11;;;;;;;9.73;3.47;;;;;;;3.45;87.24;99571.00;5054257;28;20147;-71
2022/01/05 03:33:37;;;;;;;7.78;3.08;;;;;;;3.40;87.25;99572.69;5057701;28;20093;-71
2022/01/05 03:36:03;;;;;;;9.68;3.83;;;;;;;3.48;86.90;99577.66;5044330;28;20032;-71
2022/01/05 03:38:29;;;;;;;7.38;2.92;;;;;;;3.44;87.07;99579.16;5057006;28;20032;-71
2022/01/05 03:40:55;;;;;;;6.03;2.22;;;;;;;3.44;87.01;99590.56;5052548;28;20044;-70
2022/01/05 03:43:21;;;;;;;6.93;2.42;;;;;;;3.43;86.97;99580.22;5053289;28;20504;-73
2022/01/05 03:45:47;;;;;;;7.57;2.90;;;;;;;3.43;87.10;99582.84;5036953;28;20037;-71
2022/01/05 03:48:15;;;;;;;13.23;3.20;;;;;;;3.43;86.72;99582.84;5051848;28;20108;-71
2022/01/05 03:50:41;;;;;;;9.40;2.50;;;;;;;3.44;86.91;99590.56;5053277;28;20076;-73
2022/01/05 03:53:09;;;;;;;5.22;2.60;;;;;;;3.43;86.75;99596.09;5055072;28;20040;-70
2022/01/05 03:55:37;;;;;;;5.20;2.13;;;;;;;3.40;86.93;99588.59;5057789;28;20379;-71
2022/01/05 03:58:02;;;;;;;5.68;2.45;;;;;;;3.39;86.81;99586.97;5052305;28;20029;-72
2022/01/05 04:00:29;;;;;;;7.75;2.60;;;;;;;3.38;87.11;99582.72;5054533;28;20380;-71
2022/01/05 04:02:56;;;;;;;8.25;1.85;;;;;;;3.38;86.86;99588.00;5053683;28;20020;-72
2022/01/05 04:05:22;;;;;;;6.95;2.60;;;;;;;3.37;87.02;99597.00;5056967;28;20582;-72
2022/01/05 04:07:49;;;;;;;5.30;2.60;;;;;;;3.34;86.90;99587.66;5052206;28;20039;-72
2022/01/05 04:10:15;;;;;;;7.72;2.72;;;;;;;3.35;87.02;99586.63;5054555;28;20025;-71
2022/01/05 04:12:41;;;;;;;8.05;2.42;;;;;;;3.33;87.16;99588.72;5036414;28;20044;-73
2022/01/05 04:15:06;;;;;;;12.95;3.03;;;;;;;3.34;87.07;99583.19;5048376;28;20028;-72
2022/01/05 04:17:32;;;;;;;6.57;2.67;;;;;;;3.38;86.89;99582.72;5055959;28;20233;-71
2022/01/05 04:19:57;;;;;;;7.40;2.30;;;;;;;3.37;86.77;99586.41;5056939;28;20033;-72
2022/01/05 04:22:23;;;;;;;5.82;2.25;;;;;;;3.34;86.70;99577.09;5051785;28;20032;-70
2022/01/05 04:24:49;;;;;;;6.38;2.50;;;;;;;3.33;86.81;99581.56;5051806;28;20040;-71
2022/01/05 04:27:15;;;;;;;7.50;2.22;;;;;;;3.31;86.86;99580.19;5049490;28;20028;-71
2022/01/05 04:29:42;;;;;;;5.43;1.95;;;;;;;3.33;86.87;99586.88;5039502;28;20040;-71
2022/01/05 04:32:08;;;;;;;5.88;2.47;;;;;;;3.30;87.13;99582.03;5052411;28;20343;-71
2022/01/05 04:34:34;;;;;;;8.68;2.15;;;;;;;3.30;86.91;99579.38;5057591;28;20111;-72
2022/01/05 04:37:00;;;;;;;6.93;2.15;;;;;;;3.30;87.25;99592.63;5053514;28;20169;-71
2022/01/05 04:39:26;;;;;;;6.45;2.30;;;;;;;3.31;87.00;99591.59;5053191;28;20418;-71
2022/01/05 04:41:51;;;;;;;5.32;1.77;;;;;;;3.32;87.30;99593.19;5048598;28;20277;-71
2022/01/05 04:44:17;;;;;;;8.07;2.33;;;;;;;3.33;87.03;99586.06;5055610;28;21421;-71
2022/01/05 04:46:42;;;;;;;3.70;1.42;;;;;;;3.34;86.93;99595.63;5049532;28;20028;-72
2022/01/05 04:49:08;;;;;;;6.97;2.05;;;;;;;3.36;87.15;99595.38;5039784;28;20024;-71
2022/01/05 04:51:33;;;;;;;7.95;2.50;;;;;;;3.30;86.94;99594.47;5053679;28;20131;-71
2022/01/05 04:53:59;;;;;;;4.18;2.30;;;;;;;3.26;87.55;99588.81;5051450;28;20021;-70
2022/01/05 04:56:24;;;;;;;5.38;1.65;;;;;;;3.27;87.11;99594.94;5054086;28;20123;-72
2022/01/05 04:58:50;;;;;;;7.03;1.63;;;;;;;3.28;87.38;99596.53;5053963;28;20512;-71
2022/01/05 05:01:15;;;;;;;8.52;2.40;;;;;;;3.28;87.24;99599.19;5054150;28;20039;-71
2022/01/05 05:03:40;;;;;;;7.43;2.35;;;;;;;3.28;87.48;99600.00;5040911;28;20024;-73
2022/01/05 05:06:06;;;;;;;3.80;1.80;;;;;;;3.29;87.24;99601.59;5034668;28;20190;-71
2022/01/05 05:08:32;;;;;;;3.97;1.80;;;;;;;3.30;87.41;99603.22;5055912;28;20167;-72
2022/01/05 05:10:57;;;;;;;7.00;1.85;;;;;;;3.33;87.02;99605.41;5049744;28;20102;-71
2022/01/05 05:13:22;;;;;;;6.38;1.83;;;;;;;3.32;87.20;99598.50;5052706;28;20036;-72
2022/01/05 05:15:48;;;;;;;6.07;1.65;;;;;;;3.32;87.24;99601.13;5051007;28;20548;-70
2022/01/05 05:18:13;;;;;;;8.82;2.25;;;;;;;3.30;87.11;99600.56;5053583;28;20035;-71
2022/01/05 05:20:40;;;;;;;5.00;1.77;;;;;;;3.27;87.07;99603.66;5049091;28;20041;-71
2022/01/05 05:23:06;;;;;;;4.03;1.80;;;;;;;3.27;87.17;99593.09;5034698;28;20028;-71
2022/01/05 05:25:32;;;;;;;8.75;1.90;;;;;;;3.27;87.19;99589.63;5053233;28;20043;-71
2022/01/05 05:27:58;;;;;;;7.40;2.13;;;;;;;3.27;87.25;99600.22;5049498;28;20116;-72
2022/01/05 05:30:23;;;;;;;4.90;2.28;;;;;;;3.25;87.17;99597.00;5053357;28;20059;-70
2022/01/05 05:32:49;;;;;;;10.75;1.85;;;;;;;3.22;87.17;99598.22;5053249;28;20029;-71
2022/01/05 05:35:14;;;;;;;7.07;1.83;;;;;;;3.21;87.23;99601.91;5052299;28;20477;-71
2022/01/05 05:37:40;;;;;;;9.55;1.80;;;;;;;3.21;87.56;99603.75;5038610;28;20090;-70
2022/01/05 05:40:06;;;;;;;7.10;1.50;;;;;;;3.21;87.51;99590.53;5048798;28;20500;-71
2022/01/05 05:42:32;;;;;;;5.95;2.50;;;;;;;3.21;87.39;99607.22;5052081;28;20021;-71
2022/01/05 05:44:57;;;;;;;7.47;2.20;;;;;;;3.22;87.48;99598.22;5050344;28;20376;-72
2022/01/05 05:47:23;;;;;;;10.73;2.63;;;;;;;3.19;87.43;99608.47;5052154;28;20028;-71
2022/01/05 05:49:48;;;;;;;6.47;1.85;;;;;;;3.08;87.72;99612.72;5038468;28;20033;-71
2022/01/05 05:52:17;;;;;;;7.20;1.73;;;;;;;3.14;87.55;99603.88;5051026;28;20029;-72
2022/01/05 05:54:43;;;;;;;5.13;1.67;;;;;;;3.16;87.75;99612.38;5055063;28;20154;-73
2022/01/05 05:57:08;;;;;;;9.57;2.35;;;;;;;3.17;87.53;99603.41;5038943;28;20147;-71
2022/01/05 05:59:34;;;;;;;4.20;1.48;;;;;;;3.21;87.45;99611.69;5035986;28;20028;-71
2022/01/05 06:02:00;;;;;;;6.03;2.58;;;;;;;3.18;87.42;99606.88;5035062;28;20111;-71
2022/01/05 06:04:26;;;;;;;9.43;1.88;;;;;;;3.19;87.59;99593.41;5047821;28;20036;-71
2022/01/05 06:06:51;;;;;;;6.75;1.60;;;;;;;3.18;87.45;99597.09;5048606;28;20436;-73
2022/01/05 06:09:17;;;;;;;5.68;1.90;;;;;;;3.23;87.42;99599.03;5046121;28;20041;-72
2022/01/05 06:11:42;;;;;;;4.43;1.50;;;;;;;3.24;87.07;99603.31;5056157;28;20040;-73
2022/01/05 06:14:08;;;;;;;8.43;1.92;;;;;;;3.18;87.42;99601.56;5037148;28;20101;-71
2022/01/05 06:16:33;;;;;;;7.30;2.58;;;;;;;3.18;87.47;99593.63;5057939;28;20048;-72
2022/01/05 06:18:59;;;;;;;8.23;2.10;;;;;;;3.19;87.55;99595.25;5050903;28;20436;-71
2022/01/05 06:21:24;;;;;;;2.88;1.35;;;;;;;3.21;87.11;99595.81;5051749;28;21311;-70
2022/01/05 06:23:50;;;;;;;6.72;1.60;;;;;;;3.17;87.19;99608.69;5038224;28;20555;-71
2022/01/05 06:26:15;;;;;;;6.20;1.77;;;;;;;3.17;87.42;99607.91;5057845;28;20047;-71
2022/01/05 06:28:40;;;;;;;5.10;1.60;;;;;;;3.16;87.19;99620.31;5037665;28;20029;-71
2022/01/05 06:31:06;;;;;;;5.05;1.77;;;;;;;3.11;87.13;99617.56;5057989;28;20047;-71
2022/01/05 06:33:31;;;;;;;8.88;2.67;;;;;;;3.14;87.08;99617.09;5052116;28;20131;-71
2022/01/05 06:35:58;;;;;;;9.88;2.67;;;;;;;3.14;86.98;99624.25;5050839;28;20505;-72
2022/01/05 06:38:24;;;;;;;5.28;1.80;;;;;;;3.11;86.82;99616.75;5051168;28;20033;-72
2022/01/05 06:40:49;;;;;;;6.40;2.00;;;;;;;3.11;86.83;99619.41;5058716;28;20372;-72
2022/01/05 06:43:15;;;;;;;5.60;1.85;;;;;;;3.04;87.09;99609.69;5052646;28;20056;-71
2022/01/05 06:45:40;;;;;;;11.65;2.10;;;;;;;3.02;87.07;99603.84;5054878;28;20099;-72
2022/01/05 06:48:06;;;;;;;7.35;1.52;;;;;;;3.04;87.04;99611.53;5050287;28;20120;-71
2022/01/05 06:50:31;;;;;;;6.07;1.65;;;;;;;3.03;87.00;99616.03;5059867;28;20043;-72
2022/01/05 06:52:57;;;;;;;5.28;1.60;;;;;;;3.02;86.91;99608.31;5055342;28;20038;-69
2022/01/05 06:55:23;;;;;;;5.60;1.75;;;;;;;2.96;86.97;99609.22;5059658;28;20737;-68
2022/01/05 06:57:51;;;;;;;9.77;1.80;;;;;;;2.95;87.08;99612.91;5038416;28;20452;-69
2022/01/05 07:00:17;;;;;;;3.67;1.60;;;;;;;2.93;86.96;99631.66;5059983;28;20178;-69
2022/01/05 07:02:43;;;;;;;6.65;1.85;;;;;;;2.95;86.74;99631.44;5056727;28;20519;-68
2022/01/05 07:05:09;;;;;;;7.53;2.05;;;;;;;2.96;86.79;99630.41;5052045;28;20032;-69
2022/01/05 07:07:36;;;;;;;6.30;1.60;;;;;;;2.95;86.74;99632.25;5057177;28;20020;-68
2022/01/05 07:10:03;;;;;;;8.38;1.80;;;;;;;2.94;87.21;99641.22;5053416;28;20031;-69
2022/01/05 07:12:29;;;;;;;5.88;1.75;;;;;;;2.95;87.01;99634.88;5052929;28;20055;-68
2022/01/05 07:14:54;;;;;;;10.15;2.00;;;;;;;2.94;86.78;99627.19;5053618;28;20299;-68
2022/01/05 07:17:20;;;;;;;6.28;2.45;;;;;;;2.90;86.61;99626.81;5053322;28;20024;-68
2022/01/05 07:19:45;;;;;;;6.47;1.70;;;;;;;2.88;86.44;99634.19;5042919;28;20450;-69
2022/01/05 07:22:11;;;;;;;5.32;1.98;;;;;;;2.85;86.55;99647.84;5055404;28;20071;-69
2022/01/05 07:24:36;;;;;;;10.20;1.67;;;;;;;2.83;86.71;99646.44;5053935;28;20170;-69
2022/01/05 07:27:02;;;;;;;7.22;1.83;;;;;;;2.77;87.01;99639.41;5052726;28;20032;-69
2022/01/05 07:29:27;;;;;;;7.88;2.20;;;;;;;2.72;86.83;99650.69;5058550;28;20461;-68
2022/01/05 07:31:53;;;;;;;8.60;2.15;;;;;;;2.74;86.64;99653.91;5053458;28;20115;-69
2022/01/05 07:34:18;;;;;;;9.10;2.00;;;;;;;2.71;86.62;99654.34;5050938;28;20036;-68
2022/01/05 07:36:44;;;;;;;7.05;1.60;;;;;;;2.71;86.75;99657.81;5054877;28;20039;-69
2022/01/05 07:39:10;;;;;;;4.93;2.00;;;;;;;2.69;87.09;99651.94;5053842;28;20092;-69
2022/01/05 07:41:36;;;;;;;8.63;1.60;;;;;;;2.70;86.87;99650.09;5059440;28;20414;-69
2022/01/05 07:44:03;;;;;;;4.82;1.95;;;;;;;2.67;86.94;99653.16;5052066;28;20039;-68
2022/01/05 07:46:29;;;;;;;9.85;2.35;;;;;;;2.61;87.14;99649.59;5051209;28;20128;-69
2022/01/05 07:48:55;;;;;;;7.32;1.67;;;;;;;2.64;86.99;99643.84;5052784;28;20484;-68
2022/01/05 07:51:20;;;;;;;3.03;1.90;;;;;;;2.62;87.10;99650.38;5057191;28;20143;-68
2022/01/05 07:53:46;;;;;;;7.50;2.08;;;;;;;2.61;87.21;99652.22;5042220;28;20021;-69
2022/01/05 07:56:12;;;;;;;4.35;1.80;;;;;;;2.61;87.18;99649.59;5053460;28;20377;-69
2022/01/05 07:58:38;;;;;;;8.75;2.25;;;;;;;2.65;86.97;99656.03;5052742;28;20021;-69
2022/01/05 08:01:04;;;;;;;4.25;1.73;;;;;;;2.65;86.90;99661.31;5033475;28;20347;-69
2022/01/05 08:03:33;;;;;;;4.95;1.85;;;;;;;2.71;87.05;99663.09;5055562;28;20083;-69
2022/01/05 08:06:02;;;;;;;9.75;2.08;;;;;;;2.71;86.44;99659.66;5053052;28;20032;-68
2022/01/05 08:08:28;;;;;;;7.35;1.50;;;;;;;2.67;86.70;99653.97;5043842;28;20025;-70
2022/01/05 08:10:54;;;;;;;11.57;1.90;;;;;;;2.63;86.81;99655.44;5055222;28;20152;-68
2022/01/05 08:13:19;;;;;;;6.25;1.55;;;;;;;2.63;86.70;99650.16;5048922;28;20029;-68
2022/01/05 08:15:45;;;;;;;6.28;1.98;;;;;;;2.61;86.78;99646.94;5035955;28;20036;-69
2022/01/05 08:18:10;;;;;;;9.20;2.05;;;;;;;2.62;86.98;99640.63;5049313;28;20025;-69
2022/01/05 08:20:36;;;;;;;6.35;1.77;;;;;;;2.63;86.66;99647.53;5051131;28;20426;-68
2022/01/05 08:23:01;;;;;;;8.63;1.55;;;;;;;2.60;86.75;99645.31;5040407;28;20504;-69
2022/01/05 08:25:27;;;;;;;4.40;1.77;;;;;;;2.62;86.75;99651.19;5050804;28;20469;-69
2022/01/05 08:27:53;;;;;;;4.60;1.40;;;;;;;2.63;86.73;99658.09;5055725;28;20024;-68
2022/01/05 08:30:20;;;;;;;6.85;1.88;;;;;;;2.64;86.67;99654.41;5053484;28;20040;-69
2022/01/05 08:32:47;;;;;;;6.18;2.33;;;;;;;2.62;86.62;99658.31;5054357;28;20020;-69
2022/01/05 08:35:15;;;;;;;4.38;1.85;;;;;;;2.61;86.53;99659.34;5037867;28;20034;-69
2022/01/05 08:37:46;;;;;;;8.60;1.92;;;;;;;2.60;86.66;99663.84;5049340;28;20071;-70
2022/01/05 08:40:14;;;;;;;7.78;1.88;;;;;;;2.61;86.69;99660.16;5056883;28;20111;-68
2022/01/05 08:42:40;;;;;;;5.78;2.25;;;;;;;2.61;86.52;99667.28;5049400;28;20108;-69
2022/01/05 08:45:07;;;;;;;9.93;1.85;;;;;;;2.58;86.85;99671.19;5032074;28;20906;-68
2022/01/05 08:47:33;;;;;;;8.57;1.80;;;;;;;2.62;86.46;99660.97;5049217;28;20021;-68
2022/01/05 08:49:58;;;;;;;4.95;1.40;;;;;;;2.63;86.45;99663.38;5048053;28;20090;-68
2022/01/05 08:52:24;;;;;;;7.57;1.63;;;;;;;2.64;86.22;99670.28;5050015;28;20117;-69
2022/01/05 08:54:50;;;;;;;5.53;1.67;;;;;;;2.64;86.21;99665.00;5040072;28;20025;-69
2022/01/05 08:57:17;;;;;;;11.32;2.53;;;;;;;2.67;85.75;99666.38;5052200;28;20181;-69
2022/01/05 08:59:43;;;;;;;4.80;2.10;;;;;;;2.64;85.98;99662.34;5039316;28;20737;-68
2022/01/05 09:02:09;;;;;;;6.93;2.20;;;;;;;2.65;86.19;99674.53;5048782;28;20024;-69
2022/01/05 09:04:34;;;;;;;6.80;1.75;;;;;;;2.70;85.98;99666.78;5048738;28;20488;-69
2022/01/05 09:07:00;;;;;;;7.70;1.90;;;;;;;2.77;85.95;99665.88;5052142;28;20024;-69
2022/01/05 09:09:26;;;;;;;8.18;2.13;;;;;;;2.73;85.88;99663.69;5052130;28;20038;-69
2022/01/05 09:11:52;;;;;;;11.93;2.15;;;;;;;2.78;85.92;99664.84;5049452;28;20059;-69
2022/01/05 09:14:17;;;;;;;4.55;1.40;;;;;;;2.85;85.93;99665.56;5048774;28;20028;-69
2022/01/05 09:16:43;;;;;;;7.88;2.08;;;;;;;2.88;85.74;99665.94;5050617;28;20082;-68
2022/01/05 09:19:09;;;;;;;9.00;2.40;;;;;;;2.86;85.22;99677.75;5053110;28;20017;-69
2022/01/05 09:21:35;;;;;;;6.78;1.55;;;;;;;2.83;85.39;99672.91;5054438;28;20032;-68
2022/01/05 09:24:00;;;;;;;8.25;1.70;;;;;;;2.93;85.39;99673.19;5052270;28;20219;-69
2022/01/05 09:26:26;;;;;;;4.78;1.50;;;;;;;2.90;84.97;99676.28;5056665;28;20182;-68
2022/01/05 09:28:51;;;;;;;5.13;2.22;;;;;;;2.96;85.21;99686.78;5049564;28;20013;-69
2022/01/05 09:31:17;;;;;;;3.65;1.58;;;;;;;2.99;84.74;99682.88;5051129;28;20511;-69
2022/01/05 09:33:42;;;;;;;6.95;2.10;;;;;;;3.04;84.75;99678.50;5048320;28;20037;-68
2022/01/05 09:36:15;;;;;;;9.82;1.88;;;;;;;3.03;84.37;99674.25;5054520;28;20507;-68
2022/01/05 09:44:04;;;;;;;7.68;1.73;;;;;;;2.96;83.98;99670.91;5047889;28;20051;-68
2022/01/05 09:46:35;;;;;;;8.13;1.67;;;;;;;2.99;84.02;99672.28;5053294;28;20048;-68
2022/01/05 09:49:03;;;;;;;9.35;1.60;;;;;;;3.02;83.79;99672.63;5052599;28;20559;-69
2022/01/05 09:51:31;;;;;;;7.68;1.63;;;;;;;3.06;83.82;99675.66;5060881;28;20025;-69
2022/01/05 09:54:01;;;;;;;12.07;2.50;;;;;;;2.96;82.46;99667.44;5052502;28;20043;-69
2022/01/05 09:56:27;;;;;;;11.02;1.52;;;;;;;3.07;83.04;99679.91;5042931;28;20117;-69
2022/01/05 09:58:54;;;;;;;7.70;1.77;;;;;;;3.09;82.75;99672.56;5050735;28;20039;-69
2022/01/05 10:01:19;;;;;;;9.07;1.95;;;;;;;3.15;82.95;99682.25;5059627;28;20553;-68
2022/01/05 10:03:45;;;;;;;7.38;1.73;;;;;;;3.09;82.30;99683.16;5053870;28;20032;-68
2022/01/05 10:06:12;;;;;;;14.45;1.75;;;;;;;3.13;82.24;99681.66;5053054;28;20021;-69
2022/01/05 10:08:37;;;;;;;6.60;1.70;;;;;;;3.19;82.19;99678.09;5041347;28;20158;-69
2022/01/05 10:11:03;;;;;;;7.32;1.63;;;;;;;3.18;81.86;99676.50;5054721;28;20282;-68
2022/01/05 10:13:28;;;;;;;7.65;1.83;;;;;;;3.28;82.01;99673.31;5051311;28;20525;-68
2022/01/05 10:15:56;;;;;;;9.13;1.75;;;;;;;3.22;81.89;99688.22;5058684;28;20472;-69
2022/01/05 10:18:22;;;;;;;7.53;1.50;;;;;;;3.17;80.96;99685.47;5043246;28;20282;-69
2022/01/05 10:21:08;;;;;;;7.90;1.60;;;;;;;3.14;80.87;99675.34;5054668;28;20089;-69
2022/01/05 10:23:46;;;;;;;10.85;1.85;;;;;;;3.24;81.00;99674.78;5058454;28;20048;-68
2022/01/05 10:26:29;;;;;;;6.40;1.58;;;;;;;3.26;80.95;99678.81;5037265;28;20043;-69
2022/01/05 10:29:15;;;;;;;6.95;1.63;;;;;;;3.29;80.67;99673.06;5040444;28;20100;-69
2022/01/05 10:31:42;;;;;;;5.85;1.67;;;;;;;3.35;80.59;99681.94;5053430;28;20577;-69
2022/01/05 10:34:21;;;;;;;7.65;1.58;;;;;;;3.38;80.67;99668.25;5042322;28;20228;-68
2022/01/05 10:36:52;;;;;;;9.52;1.75;;;;;;;3.46;80.46;99662.63;5050034;28;20108;-68
2022/01/05 10:39:26;;;;;;;3.05;1.27;;;;;;;3.49;80.35;99679.91;5053379;28;20478;-69
2022/01/05 10:41:52;;;;;;;9.93;1.92;;;;;;;3.49;79.64;99683.38;5051122;28;20238;-69
2022/01/05 10:44:18;;;;;;;6.60;1.40;;;;;;;3.56;80.43;99678.75;5055263;28;20036;-68
2022/01/05 10:46:46;;;;;;;9.73;2.00;;;;;;;3.52;79.60;99676.81;5053748;28;20066;-68
2022/01/05 10:49:23;;;;;;;7.93;1.50;;;;;;;3.53;79.32;99675.75;5054543;28;20055;-69
2022/01/05 10:51:48;;;;;;;6.93;1.55;;;;;;;3.55;79.13;99681.63;5053023;28;20036;-69
2022/01/05 10:54:20;;;;;;;6.82;1.60;;;;;;;3.67;79.61;99679.00;5054719;28;20040;-69
2022/01/05 10:56:46;;;;;;;9.65;1.77;;;;;;;3.54;78.95;99678.19;5051575;28;20396;-68
2022/01/05 10:59:14;;;;;;;5.18;1.50;;;;;;;3.56;79.16;99680.59;5054232;28;20017;-68
2022/01/05 11:01:41;;;;;;;11.10;1.73;;;;;;;3.58;79.08;99686.47;5055088;28;20376;-68
2022/01/05 11:04:16;;;;;;;6.22;1.65;;;;;;;3.62;78.93;99683.16;5037475;28;20029;-68
2022/01/05 11:06:54;;;;;;;;;;;;;;;3.57;78.47;99680.38;5055756;28;20024;-70
2022/01/05 11:09:21;;;;;;;6.10;1.60;;;;;;;3.66;78.86;99678.22;5054823;28;20010;-69
2022/01/05 11:11:49;;;;;;;8.15;1.58;;;;;;;3.66;78.42;99683.50;5038270;28;20151;-69
2022/01/05 11:14:17;;;;;;;6.13;1.60;;;;;;;3.68;78.08;99684.09;5055061;28;20083;-69
2022/01/05 11:16:46;;;;;;;10.13;2.75;;;;;;;3.71;78.44;99683.63;5050040;28;20124;-68
2022/01/05 11:19:25;;;;;;;9.40;2.25;;;;;;;3.69;78.43;99679.59;5054495;28;20027;-70
2022/01/05 11:22:15;;;;;;;12.77;1.90;;;;;;;3.72;78.15;99676.47;5043297;28;20036;-69
2022/01/05 11:24:53;;;;;;;8.45;1.80;;;;;;;3.81;78.17;99672.47;5046312;28;20087;-69
2022/01/05 11:27:29;;;;;;;11.95;1.73;;;;;;;3.86;77.97;99677.88;5049518;28;20145;-69
2022/01/05 11:29:56;;;;;;;10.25;1.67;;;;;;;3.90;78.11;99682.47;5057901;28;20020;-69
2022/01/05 11:32:26;;;;;;;10.77;2.10;;;;;;;3.97;78.10;99674.44;5038532;28;20024;-70
2022/01/05 11:34:52;;;;;;;7.60;1.98;;;;;;;4.01;77.82;99683.53;5057764;28;20241;-69
2022/01/05 11:37:18;;;;;;;11.02;1.50;;;;;;;4.04;77.56;99684.91;5049057;28;20517;-69
2022/01/05 11:39:47;;;;;;;7.32;1.65;;;;;;;4.04;77.15;99684.91;5056021;28;20531;-69
2022/01/05 11:42:18;;;;;;;10.68;1.73;;;;;;;4.02;76.84;99685.13;5052163;28;20506;-69
2022/01/05 11:44:45;;;;;;;11.50;2.22;;;;;;;4.06;77.05;99680.19;5057400;28;20154;-68
2022/01/05 11:47:31;;;;;;;7.78;1.60;;;;;;;4.03;77.27;99678.00;5052032;28;20586;-69